Time;durP1;ratioP1;P1;durP2;ratioP2;P2;SDS_P1;SDS_P2;PMS_P1;PMS_P2;Temp;Humidity;BMP_temperature;BMP_pressure;BME280_temperature;BME280_humidity;BME280_pressure;Samples;Min_cycle;Max_cycle;Signal;HPM_P1;HPM_P2
2022/11/28 00:02:14;;;;;;;3.40;3.10;;;10.30;99.90;;;;;;5093568;28;20700;-70
2022/11/28 00:04:39;;;;;;;3.10;2.57;;;10.20;99.90;;;;;;5076065;28;20259;-70
2022/11/28 00:07:05;;;;;;;3.17;2.87;;;10.10;99.90;;;;;;5094717;28;20263;-70
2022/11/28 00:09:31;;;;;;;3.17;2.93;;;10.10;99.90;;;;;;5094731;28;20170;-70
2022/11/28 00:11:56;;;;;;;3.30;3.00;;;10.00;99.90;;;;;;5094718;28;20168;-70
2022/11/28 00:14:22;;;;;;;3.10;2.90;;;10.10;99.90;;;;;;5094468;28;20171;-69
2022/11/28 00:16:48;;;;;;;4.43;2.97;;;10.10;99.90;;;;;;5094455;28;20203;-71
2022/11/28 00:19:17;;;;;;;3.87;3.30;;;10.20;99.90;;;;;;5093897;28;20164;-70
2022/11/28 00:21:43;;;;;;;3.23;2.83;;;10.20;99.90;;;;;;5094589;28;20176;-69
2022/11/28 00:24:08;;;;;;;3.57;3.27;;;10.10;99.90;;;;;;5094278;28;20513;-70
2022/11/28 00:26:40;;;;;;;4.50;3.47;;;10.00;99.90;;;;;;5076118;28;20172;-69
2022/11/28 00:29:07;;;;;;;3.60;3.30;;;10.00;99.90;;;;;;5094355;28;20164;-70
2022/11/28 00:31:40;;;;;;;4.73;3.73;;;10.00;99.90;;;;;;5094064;28;20172;-70
2022/11/28 00:34:10;;;;;;;4.13;3.50;;;10.00;99.90;;;;;;5093492;28;20211;-70
2022/11/28 00:36:36;;;;;;;4.10;3.57;;;10.00;99.90;;;;;;5094289;28;20215;-70
2022/11/28 00:39:05;;;;;;;4.23;3.83;;;9.90;99.90;;;;;;5094276;28;20168;-69
2022/11/28 00:41:33;;;;;;;4.53;4.20;;;9.90;99.90;;;;;;5094507;28;20171;-70
2022/11/28 00:43:59;;;;;;;4.33;3.93;;;9.80;99.90;;;;;;5093794;28;20623;-69
2022/11/28 00:46:25;;;;;;;4.63;4.13;;;9.80;99.90;;;;;;5093929;28;20243;-70
2022/11/28 00:48:51;;;;;;;5.17;4.60;;;9.60;99.90;;;;;;5093478;28;20211;-70
2022/11/28 00:51:23;;;;;;;5.63;3.67;;;9.50;99.90;;;;;;5094334;28;20214;-71
2022/11/28 00:53:51;;;;;;;4.80;4.30;;;9.50;99.90;;;;;;5093852;28;20172;-70
2022/11/28 00:56:19;;;;;;;4.83;4.30;;;9.40;99.90;;;;;;5093878;28;20231;-71
2022/11/28 00:58:48;;;;;;;4.47;4.07;;;9.40;99.90;;;;;;5093556;28;20194;-70
2022/11/28 01:01:20;;;;;;;4.60;4.20;;;9.30;99.90;;;;;;5093669;28;20167;-71
2022/11/28 01:03:47;;;;;;;4.93;4.40;;;9.30;99.90;;;;;;5075160;28;20219;-69
2022/11/28 01:06:25;;;;;;;4.53;4.10;;;9.30;99.90;;;;;;5093804;28;20175;-69
2022/11/28 01:09:03;;;;;;;6.07;4.33;;;9.30;99.90;;;;;;5093592;28;20168;-69
2022/11/28 01:11:29;;;;;;;4.93;4.13;;;9.20;99.90;;;;;;5093644;28;20164;-69
2022/11/28 01:13:57;;;;;;;4.90;3.63;;;9.20;99.90;;;;;;5092995;28;20175;-70
2022/11/28 01:16:23;;;;;;;4.67;4.10;;;9.20;99.90;;;;;;5093467;28;20238;-69
2022/11/28 01:18:48;;;;;;;5.60;3.97;;;9.30;99.90;;;;;;5093198;28;20527;-70
2022/11/28 01:21:17;;;;;;;4.40;3.93;;;9.20;99.90;;;;;;5093521;28;20236;-69
2022/11/28 01:23:43;;;;;;;5.90;3.80;;;9.20;99.90;;;;;;5093175;28;20258;-69
2022/11/28 01:26:15;;;;;;;4.40;4.00;;;9.20;99.90;;;;;;5075353;28;20207;-69
2022/11/28 01:28:40;;;;;;;4.00;3.70;;;9.20;99.90;;;;;;5093447;28;20172;-69
2022/11/28 01:31:08;;;;;;;7.03;4.10;;;9.10;99.90;;;;;;5093469;28;20175;-69
2022/11/28 01:33:34;;;;;;;5.80;4.30;;;9.10;99.90;;;;;;5092483;28;20742;-69
2022/11/28 01:36:00;;;;;;;5.00;4.60;;;9.10;99.90;;;;;;5093155;28;20203;-69
2022/11/28 01:38:27;;;;;;;6.03;4.80;;;9.00;99.90;;;;;;5093144;28;20666;-69
2022/11/28 01:40:56;;;;;;;5.37;4.80;;;9.00;99.90;;;;;;5093279;28;20168;-69
2022/11/28 01:43:23;;;;;;;5.13;4.47;;;9.10;99.90;;;;;;5093214;28;20172;-68
2022/11/28 01:45:49;;;;;;;4.93;4.43;;;9.00;99.90;;;;;;5092853;28;20174;-69
2022/11/28 01:48:29;;;;;;;7.57;4.47;;;9.00;99.90;;;;;;5093032;28;20172;-68
2022/11/28 01:51:04;;;;;;;5.03;4.57;;;9.00;99.90;;;;;;5093212;28;20184;-68
2022/11/28 01:53:33;;;;;;;4.70;4.40;;;9.00;99.90;;;;;;5093109;28;20198;-68
2022/11/28 01:56:05;;;;;;;5.00;4.50;;;9.00;99.90;;;;;;5093549;28;20677;-68
2022/11/28 01:58:35;;;;;;;8.20;4.50;;;9.00;99.90;;;;;;5093285;28;20164;-69
2022/11/28 02:01:02;;;;;;;4.87;4.30;;;9.00;99.90;;;;;;5091401;28;20702;-69
2022/11/28 02:03:38;;;;;;;5.03;4.53;;;9.00;99.90;;;;;;5093007;28;20662;-69
2022/11/28 02:06:04;;;;;;;5.17;4.67;;;8.90;99.90;;;;;;5093287;28;20635;-69
2022/11/28 02:08:33;;;;;;;5.33;4.83;;;9.10;99.90;;;;;;5092883;28;20180;-68
2022/11/28 02:11:52;;;;;;;4.50;4.10;;;9.10;99.90;;;;;;5093114;28;20179;-68
2022/11/28 02:14:55;;;;;;;5.37;4.57;;;9.10;99.90;;;;;;4991341;28;20206;-68
2022/11/28 02:17:46;;;;;;;5.40;4.90;;;9.10;99.90;;;;;;5092719;28;20670;-67
2022/11/28 02:20:33;;;;;;;4.80;4.30;;;9.20;99.90;;;;;;5092864;28;20658;-68
2022/11/28 02:23:12;;;;;;;4.70;4.30;;;9.10;99.90;;;;;;5092798;28;20172;-68
2022/11/28 02:25:44;;;;;;;6.30;4.97;;;9.10;99.90;;;;;;5095374;28;20168;-68
2022/11/28 02:28:32;;;;;;;7.03;5.53;;;9.10;99.90;;;;;;5096669;28;20182;-68
2022/11/28 02:31:01;;;;;;;5.63;5.13;;;9.20;99.90;;;;;;5095584;28;20272;-68
2022/11/28 02:33:32;;;;;;;5.83;4.57;;;9.10;99.90;;;;;;5096223;28;20224;-68
2022/11/28 02:36:07;;;;;;;5.70;5.03;;;9.00;99.90;;;;;;5096421;28;20256;-68
2022/11/28 02:39:06;;;;;;;6.47;4.70;;;9.00;99.90;;;;;;5078197;28;20182;-68
2022/11/28 02:42:06;;;;;;;5.47;4.87;;;9.00;99.90;;;;;;5009601;28;20184;-68
2022/11/28 02:44:45;;;;;;;5.60;5.17;;;9.00;99.90;;;;;;5055299;28;20184;-68
2022/11/28 02:47:22;;;;;;;5.33;4.83;;;9.00;99.90;;;;;;5096291;28;20203;-68
2022/11/28 02:50:01;;;;;;;6.07;5.17;;;9.00;99.90;;;;;;5096365;28;20190;-69
2022/11/28 02:52:34;;;;;;;5.03;4.63;;;9.00;99.90;;;;;;5096194;28;20210;-68
2022/11/28 02:55:00;;;;;;;5.87;4.87;;;9.00;99.90;;;;;;5096073;28;20201;-68
2022/11/28 02:57:41;;;;;;;5.00;4.60;;;9.00;99.90;;;;;;5096022;28;20211;-69
2022/11/28 03:00:32;;;;;;;4.80;4.40;;;9.00;99.90;;;;;;5095870;28;20176;-69
2022/11/28 03:03:17;;;;;;;5.30;4.80;;;9.00;99.90;;;;;;5077745;28;20258;-68
2022/11/28 03:05:59;;;;;;;5.27;4.77;;;9.00;99.90;;;;;;5095749;28;20168;-68
2022/11/28 03:09:02;;;;;;;5.23;4.63;;;9.00;99.90;;;;;;5096020;28;20248;-68
2022/11/28 03:11:27;;;;;;;5.37;4.70;;;9.00;99.90;;;;;;5095804;28;20175;-67
2022/11/28 03:14:12;;;;;;;5.37;4.97;;;9.00;99.90;;;;;;5095310;28;20183;-68
2022/11/28 03:17:12;;;;;;;7.10;5.50;;;9.00;99.90;;;;;;5095608;28;20211;-69
2022/11/28 03:19:49;;;;;;;5.57;5.00;;;9.00;99.90;;;;;;5095563;28;20180;-69
2022/11/28 03:22:36;;;;;;;5.40;5.00;;;9.00;99.90;;;;;;5095537;28;20168;-68
2022/11/28 03:25:11;;;;;;;5.00;4.53;;;9.00;99.90;;;;;;5095517;28;20658;-68
2022/11/28 03:27:44;;;;;;;6.60;5.40;;;9.10;99.90;;;;;;5095205;28;20168;-68
2022/11/28 03:30:19;;;;;;;5.93;4.90;;;9.00;99.90;;;;;;5095468;28;20171;-67
2022/11/28 03:32:48;;;;;;;5.40;4.77;;;9.10;99.90;;;;;;5094872;28;20226;-68
2022/11/28 03:35:18;;;;;;;5.13;4.73;;;9.10;99.90;;;;;;5095130;28;20176;-68
2022/11/28 03:37:54;;;;;;;5.60;5.10;;;9.10;99.90;;;;;;5095651;28;20317;-68
2022/11/28 03:40:28;;;;;;;5.40;4.90;;;9.10;99.90;;;;;;5095177;28;20179;-68
2022/11/28 03:43:09;;;;;;;5.60;5.00;;;9.20;99.90;;;;;;5094835;28;20272;-68
2022/11/28 03:45:40;;;;;;;5.13;4.73;;;9.20;99.90;;;;;;5095038;28;20678;-68
2022/11/28 03:48:12;;;;;;;5.90;4.37;;;9.20;99.90;;;;;;5094941;28;20195;-68
2022/11/28 03:50:46;;;;;;;4.90;4.50;;;9.20;99.90;;;;;;5094871;28;20179;-68
2022/11/28 03:53:19;;;;;;;4.40;4.10;;;9.10;99.90;;;;;;5094876;28;20178;-68
2022/11/28 03:56:06;;;;;;;5.13;4.63;;;9.10;99.90;;;;;;5094540;28;20206;-68
2022/11/28 03:58:34;;;;;;;5.37;4.87;;;9.10;99.90;;;;;;5094642;28;20186;-68
2022/11/28 04:01:02;;;;;;;5.13;4.73;;;9.10;99.90;;;;;;5094946;28;20164;-68
2022/11/28 04:03:39;;;;;;;5.50;5.10;;;9.00;99.90;;;;;;5094871;28;20246;-67
2022/11/28 04:06:15;;;;;;;5.00;4.60;;;9.20;99.90;;;;;;5094855;28;20172;-68
2022/11/28 04:08:55;;;;;;;4.67;4.27;;;9.20;99.90;;;;;;5094576;28;20159;-68
2022/11/28 04:11:32;;;;;;;5.10;4.70;;;9.20;99.90;;;;;;5094360;28;20241;-68
2022/11/28 04:14:19;;;;;;;4.93;4.63;;;9.20;99.90;;;;;;5094643;28;20168;-68
2022/11/28 04:16:52;;;;;;;5.33;4.93;;;9.20;99.90;;;;;;5094294;28;20198;-69
2022/11/28 04:19:24;;;;;;;5.40;4.93;;;9.30;99.90;;;;;;5094191;28;20174;-68
2022/11/28 04:21:59;;;;;;;5.80;5.40;;;9.30;99.90;;;;;;5094026;28;20168;-68
2022/11/28 04:24:33;;;;;;;5.50;5.00;;;9.30;99.90;;;;;;5094374;28;20163;-68
2022/11/28 04:27:06;;;;;;;5.90;5.23;;;9.30;99.90;;;;;;5093761;28;20559;-68
2022/11/28 04:29:38;;;;;;;5.73;5.30;;;9.30;99.90;;;;;;5093874;28;20657;-67
2022/11/28 04:32:04;;;;;;;5.80;5.30;;;9.30;99.90;;;;;;5094101;28;20623;-68
2022/11/28 04:34:33;;;;;;;5.90;5.37;;;9.30;99.90;;;;;;5093592;28;20234;-68
2022/11/28 04:37:01;;;;;;;6.37;5.87;;;9.20;99.90;;;;;;5093743;28;20664;-68
2022/11/28 04:39:32;;;;;;;6.27;5.77;;;9.20;99.90;;;;;;5093966;28;20239;-68
2022/11/28 04:42:38;;;;;;;7.20;6.30;;;9.30;99.90;;;;;;5093319;28;20204;-68
2022/11/28 04:45:29;;;;;;;7.77;7.07;;;9.30;99.90;;;;;;5093732;28;20530;-68
2022/11/28 04:47:55;;;;;;;8.17;7.37;;;9.20;99.90;;;;;;5093342;28;20530;-68
2022/11/28 04:50:26;;;;;;;7.90;7.20;;;9.30;99.90;;;;;;5093548;28;20164;-68
2022/11/28 04:53:08;;;;;;;8.07;7.40;;;9.20;99.90;;;;;;5093325;28;20172;-68
2022/11/28 04:55:50;;;;;;;8.13;7.43;;;9.20;99.90;;;;;;5074694;28;20659;-68
2022/11/28 04:58:18;;;;;;;8.80;7.90;;;9.30;99.90;;;;;;5092910;28;20172;-68
2022/11/28 05:00:47;;;;;;;8.70;7.90;;;9.30;99.90;;;;;;5093677;28;20192;-67
2022/11/28 05:03:12;;;;;;;10.37;8.57;;;9.20;99.90;;;;;;5093375;28;20199;-68
2022/11/28 05:05:45;;;;;;;8.67;7.93;;;9.20;99.90;;;;;;5093509;28;20257;-68
2022/11/28 05:08:10;;;;;;;8.50;7.80;;;9.20;99.90;;;;;;5092776;28;20655;-68
2022/11/28 05:10:36;;;;;;;8.60;7.80;;;9.20;99.90;;;;;;5092568;28;20164;-68
2022/11/28 05:13:02;;;;;;;9.23;8.37;;;9.20;99.90;;;;;;5092844;28;20254;-68
2022/11/28 05:15:28;;;;;;;8.83;8.00;;;9.30;99.90;;;;;;5093092;28;20263;-68
2022/11/28 05:17:54;;;;;;;9.03;8.20;;;9.30;99.90;;;;;;5092975;28;20184;-68
2022/11/28 05:20:19;;;;;;;9.53;8.57;;;9.30;99.90;;;;;;5093089;28;20270;-68
2022/11/28 05:22:45;;;;;;;9.30;8.40;;;9.30;99.90;;;;;;5092842;28;20212;-69
2022/11/28 05:25:11;;;;;;;10.07;9.07;;;9.40;99.90;;;;;;5092917;28;20176;-67
2022/11/28 05:27:39;;;;;;;9.87;8.87;;;9.30;99.90;;;;;;5092568;28;20172;-68
2022/11/28 05:30:06;;;;;;;9.83;8.83;;;9.30;99.90;;;;;;5092818;28;20179;-69
2022/11/28 05:32:31;;;;;;;9.60;8.70;;;9.40;99.90;;;;;;5074070;28;20176;-68
2022/11/28 05:34:57;;;;;;;10.67;9.57;;;9.30;99.90;;;;;;5074872;28;20619;-68
2022/11/28 05:37:24;;;;;;;10.47;9.47;;;9.30;99.90;;;;;;5092689;28;20731;-68
2022/11/28 05:39:50;;;;;;;10.20;9.30;;;9.40;99.90;;;;;;5092008;28;20159;-69
2022/11/28 05:42:19;;;;;;;12.07;9.17;;;9.50;99.90;;;;;;5092604;28;20255;-68
2022/11/28 05:44:44;;;;;;;9.97;9.07;;;9.50;99.90;;;;;;5092481;28;20168;-68
2022/11/28 05:47:14;;;;;;;9.47;8.67;;;9.50;99.90;;;;;;5092040;28;20171;-68
2022/11/28 05:49:46;;;;;;;9.97;9.07;;;9.50;99.90;;;;;;5092186;28;20256;-68
2022/11/28 05:52:12;;;;;;;10.07;9.20;;;9.50;99.90;;;;;;5092168;28;20238;-69
2022/11/28 05:54:37;;;;;;;10.70;9.67;;;9.50;99.90;;;;;;5091881;28;20164;-69
2022/11/28 05:57:05;;;;;;;10.50;9.50;;;9.60;99.90;;;;;;5092412;28;20256;-69
2022/11/28 05:59:30;;;;;;;10.70;9.70;;;9.60;99.90;;;;;;5094696;28;20164;-69
2022/11/28 06:01:56;;;;;;;10.77;9.67;;;9.60;99.90;;;;;;5096100;28;20168;-70
2022/11/28 06:04:22;;;;;;;11.33;9.83;;;9.50;99.90;;;;;;5096027;28;20174;-70
2022/11/28 06:06:49;;;;;;;10.13;9.13;;;9.50;99.90;;;;;;5095664;28;20225;-68
2022/11/28 06:09:14;;;;;;;11.07;9.97;;;9.50;99.90;;;;;;5095786;28;20164;-68
2022/11/28 06:11:40;;;;;;;12.10;10.80;;;9.50;99.90;;;;;;5096163;28;20167;-68
2022/11/28 06:14:05;;;;;;;11.73;10.53;;;9.50;99.90;;;;;;5095994;28;20254;-69
2022/11/28 06:16:31;;;;;;;13.03;10.50;;;9.50;99.90;;;;;;5095630;28;20701;-69
2022/11/28 06:19:03;;;;;;;12.77;10.87;;;9.50;99.90;;;;;;5095974;28;20184;-69
2022/11/28 06:21:30;;;;;;;11.53;10.43;;;9.60;99.90;;;;;;5095016;28;20160;-70
2022/11/28 06:23:59;;;;;;;13.10;11.70;;;9.60;99.90;;;;;;5095844;28;20180;-68
2022/11/28 06:26:31;;;;;;;13.13;11.83;;;9.70;99.90;;;;;;5095936;28;20316;-69
2022/11/28 06:28:59;;;;;;;11.93;10.67;;;9.50;99.90;;;;;;5095955;28;20305;-69
2022/11/28 06:31:27;;;;;;;12.87;11.60;;;9.50;99.90;;;;;;5095821;28;20234;-69
2022/11/28 06:33:53;;;;;;;13.20;11.63;;;9.60;99.90;;;;;;5094514;28;20308;-69
2022/11/28 06:36:22;;;;;;;12.43;11.20;;;9.60;99.90;;;;;;5094550;28;20275;-68
2022/11/28 06:38:47;;;;;;;12.80;11.50;;;9.70;99.90;;;;;;5095306;28;20190;-70
2022/11/28 06:41:16;;;;;;;12.50;11.23;;;9.70;99.90;;;;;;5095288;28;20168;-69
2022/11/28 06:43:41;;;;;;;12.97;11.57;;;9.70;99.90;;;;;;5094555;28;20183;-69
2022/11/28 06:46:27;;;;;;;12.87;11.40;;;9.70;99.90;;;;;;5095440;28;20176;-69
2022/11/28 06:48:53;;;;;;;12.83;11.53;;;9.70;99.90;;;;;;5095273;28;20188;-69
2022/11/28 06:51:19;;;;;;;12.93;11.23;;;9.60;99.90;;;;;;5094146;28;20531;-70
2022/11/28 06:53:44;;;;;;;11.13;10.13;;;9.80;99.90;;;;;;5095182;28;20695;-69
2022/11/28 06:56:15;;;;;;;11.60;10.10;;;9.80;99.90;;;;;;5094306;28;20364;-69
2022/11/28 06:58:41;;;;;;;12.03;10.73;;;9.80;99.90;;;;;;5095026;28;20166;-69
2022/11/28 07:01:17;;;;;;;10.77;9.67;;;9.70;99.90;;;;;;5094111;28;20515;-69
2022/11/28 07:03:43;;;;;;;11.70;10.50;;;9.70;99.90;;;;;;5094669;28;20199;-70
2022/11/28 07:06:10;;;;;;;11.17;10.07;;;9.70;99.90;;;;;;5093655;28;20210;-70
2022/11/28 07:08:36;;;;;;;9.80;8.80;;;9.80;99.90;;;;;;5094995;28;20168;-70
2022/11/28 07:11:11;;;;;;;9.80;8.83;;;9.80;99.90;;;;;;5093753;28;20501;-70
2022/11/28 07:13:38;;;;;;;10.10;9.10;;;9.80;99.90;;;;;;5093999;28;20175;-69
2022/11/28 07:16:04;;;;;;;9.50;8.63;;;9.90;99.90;;;;;;5093883;28;20299;-69
2022/11/28 07:18:30;;;;;;;9.23;8.43;;;9.80;99.90;;;;;;5095021;28;20246;-69
2022/11/28 07:20:56;;;;;;;10.00;9.10;;;9.80;99.90;;;;;;5094128;28;20335;-69
2022/11/28 07:23:21;;;;;;;9.43;8.53;;;9.80;99.90;;;;;;5093373;28;20171;-69
2022/11/28 07:25:47;;;;;;;10.53;9.53;;;9.80;99.90;;;;;;5093878;28;20170;-70
2022/11/28 07:28:12;;;;;;;10.47;9.37;;;9.80;99.90;;;;;;5094285;28;20223;-69
2022/11/28 07:30:38;;;;;;;10.40;9.07;;;9.90;99.90;;;;;;5093947;28;20521;-69
2022/11/28 07:33:03;;;;;;;10.93;9.57;;;9.90;99.90;;;;;;5093251;28;20219;-70
2022/11/28 07:35:32;;;;;;;10.80;9.70;;;9.90;99.90;;;;;;5093039;28;20202;-70
2022/11/28 07:37:57;;;;;;;10.23;9.17;;;9.90;99.90;;;;;;5075567;28;20271;-70
2022/11/28 07:40:23;;;;;;;11.60;9.07;;;9.90;99.90;;;;;;5093413;28;20243;-71
2022/11/28 07:42:49;;;;;;;11.00;9.27;;;9.90;99.90;;;;;;5075608;28;20175;-70
2022/11/28 07:45:16;;;;;;;12.63;10.20;;;10.00;99.90;;;;;;5093569;28;20168;-71
2022/11/28 07:47:41;;;;;;;13.30;10.20;;;10.00;99.90;;;;;;5094337;28;20168;-71
2022/11/28 07:50:08;;;;;;;12.90;10.07;;;10.00;99.90;;;;;;5075599;28;20560;-70
2022/11/28 07:52:33;;;;;;;13.23;10.93;;;10.00;99.90;;;;;;5093369;28;20160;-71
2022/11/28 07:54:59;;;;;;;12.80;11.40;;;10.00;99.90;;;;;;5093282;28;20172;-70
2022/11/28 07:57:24;;;;;;;14.50;12.00;;;10.00;99.90;;;;;;5093447;28;20287;-70
2022/11/28 07:59:50;;;;;;;14.20;11.93;;;10.00;99.90;;;;;;5074703;28;20171;-70
2022/11/28 08:02:16;;;;;;;16.87;12.43;;;10.10;99.90;;;;;;5093483;28;20535;-70
2022/11/28 08:04:41;;;;;;;13.43;12.03;;;10.00;99.90;;;;;;5092821;28;20168;-70
2022/11/28 08:07:07;;;;;;;16.10;13.40;;;10.10;99.90;;;;;;5093823;28;20182;-70
2022/11/28 08:09:33;;;;;;;15.40;12.73;;;10.10;99.90;;;;;;5093670;28;20632;-69
2022/11/28 08:11:58;;;;;;;15.23;12.60;;;10.10;99.90;;;;;;5093155;28;20163;-71
2022/11/28 08:14:24;;;;;;;16.33;13.00;;;10.20;99.90;;;;;;5092056;28;20195;-73
2022/11/28 08:16:50;;;;;;;17.63;14.03;;;10.20;99.90;;;;;;5081070;28;20208;-70
2022/11/28 08:19:15;;;;;;;15.00;13.30;;;10.20;99.90;;;;;;5075249;28;20985;-73
2022/11/28 08:21:41;;;;;;;15.70;13.60;;;10.20;99.90;;;;;;5083280;28;20176;-71
2022/11/28 08:24:07;;;;;;;15.70;13.00;;;10.20;99.90;;;;;;5093048;28;20580;-70
2022/11/28 08:26:33;;;;;;;17.03;13.57;;;10.00;99.90;;;;;;5092914;28;20168;-70
2022/11/28 08:29:00;;;;;;;16.60;13.63;;;10.00;99.90;;;;;;5092685;28;20172;-71
2022/11/28 08:31:31;;;;;;;17.23;13.13;;;10.00;99.90;;;;;;5088111;28;20218;-69
2022/11/28 08:33:59;;;;;;;17.93;14.10;;;10.20;99.90;;;;;;5087031;28;20223;-72
2022/11/28 08:36:28;;;;;;;20.73;13.90;;;10.20;99.90;;;;;;5083278;28;20211;-73
2022/11/28 08:38:53;;;;;;;18.13;13.47;;;10.20;99.90;;;;;;5085550;28;20533;-71
2022/11/28 08:41:24;;;;;;;16.53;12.97;;;10.20;99.90;;;;;;5110079;28;20180;-70
2022/11/28 08:43:50;;;;;;;16.50;12.60;;;10.30;99.90;;;;;;5107085;28;20174;-70
2022/11/28 08:46:21;;;;;;;17.60;13.10;;;10.20;99.90;;;;;;5103023;28;20655;-69
2022/11/28 08:48:48;;;;;;;31.53;19.07;;;10.20;99.90;;;;;;5098690;28;20667;-70
2022/11/28 08:51:19;;;;;;;21.83;15.87;;;10.20;99.90;;;;;;5092140;28;20188;-72
2022/11/28 08:53:45;;;;;;;24.40;15.83;;;10.30;99.90;;;;;;5090631;28;20211;-71
2022/11/28 08:56:12;;;;;;;19.13;13.33;;;10.40;99.90;;;;;;5071710;28;20196;-71
2022/11/28 08:58:37;;;;;;;22.70;13.87;;;10.50;99.90;;;;;;5092194;28;20171;-72
2022/11/28 09:01:03;;;;;;;26.87;14.97;;;10.50;99.90;;;;;;5101461;28;20287;-72
2022/11/28 09:03:31;;;;;;;18.43;14.33;;;10.60;99.90;;;;;;5083447;28;20539;-71
2022/11/28 09:06:01;;;;;;;18.27;13.97;;;10.70;99.90;;;;;;5077393;28;20644;-71
2022/11/28 09:08:27;;;;;;;19.13;16.13;;;10.80;99.90;;;;;;5093838;28;20180;-71
2022/11/28 09:10:52;;;;;;;16.60;12.27;;;10.70;99.90;;;;;;5092652;28;20292;-69
2022/11/28 09:13:18;;;;;;;18.50;13.90;;;10.60;99.90;;;;;;5091688;28;20171;-70
2022/11/28 09:15:45;;;;;;;16.23;12.07;;;10.60;99.90;;;;;;5110758;28;20187;-70
2022/11/28 09:18:13;;;;;;;17.73;13.97;;;10.60;99.90;;;;;;5098411;28;20236;-71
2022/11/28 09:20:41;;;;;;;18.63;14.30;;;10.60;99.90;;;;;;5098561;28;20176;-70
2022/11/28 09:23:08;;;;;;;21.17;12.80;;;10.50;99.90;;;;;;5084822;28;20216;-71
2022/11/28 09:25:35;;;;;;;18.50;13.73;;;10.60;99.90;;;;;;5105598;28;20263;-69
2022/11/28 09:28:00;;;;;;;17.27;11.90;;;10.60;99.90;;;;;;5093036;28;20251;-71
2022/11/28 09:30:26;;;;;;;17.80;13.43;;;10.70;99.90;;;;;;5090511;28;20224;-70
2022/11/28 09:32:53;;;;;;;14.93;12.20;;;10.80;99.90;;;;;;5111904;28;20229;-71
2022/11/28 09:35:18;;;;;;;17.27;13.40;;;10.90;99.90;;;;;;5107191;28;20202;-70
2022/11/28 09:37:44;;;;;;;47.17;35.23;;;10.80;99.90;;;;;;5092789;28;20570;-71
2022/11/28 09:40:33;;;;;;;26.67;19.00;;;10.80;99.90;;;;;;5098942;28;20538;-70
2022/11/28 09:43:01;;;;;;;125.27;99.90;;;10.90;99.90;;;;;;5097639;28;20238;-70
2022/11/28 09:45:26;;;;;;;145.80;121.67;;;10.80;99.90;;;;;;5091570;28;20259;-70
2022/11/28 09:48:00;;;;;;;52.90;38.40;;;10.90;99.90;;;;;;5098999;28;20283;-70
2022/11/28 09:50:38;;;;;;;28.23;18.50;;;11.00;99.90;;;;;;5080043;28;20246;-71
2022/11/28 09:53:35;;;;;;;55.90;47.83;;;11.10;99.90;;;;;;5098622;28;20210;-70
2022/11/28 09:56:21;;;;;;;21.20;14.47;;;10.90;99.90;;;;;;5097340;28;20646;-68
2022/11/28 09:58:49;;;;;;;25.53;21.07;;;10.90;99.90;;;;;;5088818;28;20179;-72
2022/11/28 10:01:43;;;;;;;19.57;12.23;;;10.90;99.90;;;;;;5083101;28;20203;-73
2022/11/28 10:04:12;;;;;;;19.53;12.80;;;10.90;99.90;;;;;;5052765;28;20173;-72
2022/11/28 10:06:50;;;;;;;16.53;13.23;;;11.10;99.90;;;;;;5089297;28;20248;-69
2022/11/28 10:09:45;;;;;;;17.03;13.67;;;11.10;99.90;;;;;;5092421;28;20172;-71
2022/11/28 10:12:24;;;;;;;18.97;14.63;;;11.10;99.90;;;;;;5092807;28;20179;-72
2022/11/28 10:15:01;;;;;;;21.67;15.30;;;11.30;99.90;;;;;;5087829;28;20250;-72
2022/11/28 10:17:58;;;;;;;22.50;16.27;;;11.30;99.90;;;;;;5085120;28;20214;-71
2022/11/28 10:23:33;;;;;;;22.60;13.63;;;11.40;99.90;;;;;;5078807;28;20211;-72
2022/11/28 10:26:05;;;;;;;17.17;12.63;;;11.50;99.90;;;;;;5098646;28;20176;-70
2022/11/28 10:28:37;;;;;;;23.97;21.37;;;11.40;99.90;;;;;;5082322;28;20249;-71
2022/11/28 10:31:13;;;;;;;19.80;14.00;;;11.20;99.90;;;;;;5096125;28;20179;-71
2022/11/28 10:34:06;;;;;;;17.50;12.57;;;11.50;99.90;;;;;;5088711;28;20308;-70
2022/11/28 10:36:52;;;;;;;15.97;11.20;;;11.70;99.90;;;;;;5092187;28;20199;-72
2022/11/28 10:39:17;;;;;;;19.47;11.83;;;11.80;99.90;;;;;;5060052;28;20577;-72
2022/11/28 10:42:13;;;;;;;18.77;12.43;;;11.80;99.90;;;;;;5105978;28;20231;-71
2022/11/28 10:45:04;;;;;;;16.57;11.30;;;11.90;99.90;;;;;;5090819;28;20204;-70
2022/11/28 10:47:54;;;;;;;18.03;11.00;;;11.90;99.90;;;;;;5093980;28;20175;-72
2022/11/28 10:50:44;;;;;;;18.40;12.80;;;12.10;99.90;;;;;;5070856;28;20187;-74
2022/11/28 10:53:34;;;;;;;15.90;10.60;;;12.00;99.90;;;;;;5090351;28;20172;-74
2022/11/28 10:56:29;;;;;;;18.80;10.00;;;11.90;99.90;;;;;;5090885;28;20651;-72
2022/11/28 10:59:01;;;;;;;15.43;10.27;;;11.80;99.90;;;;;;5092973;28;20176;-71
2022/11/28 11:01:30;;;;;;;14.40;10.53;;;11.80;99.90;;;;;;5079594;28;20651;-76
2022/11/28 11:03:56;;;;;;;18.13;12.10;;;11.60;99.90;;;;;;5088690;28;20698;-70
2022/11/28 11:06:25;;;;;;;16.13;11.23;;;11.60;99.90;;;;;;5075980;28;20509;-70
2022/11/28 11:08:50;;;;;;;18.13;11.10;;;11.50;99.90;;;;;;5093903;28;20672;-71
2022/11/28 11:11:34;;;;;;;22.03;12.57;;;11.50;99.90;;;;;;5091696;28;20172;-71
2022/11/28 11:14:08;;;;;;;20.80;11.53;;;11.70;99.90;;;;;;5085002;28;20179;-73
2022/11/28 11:16:55;;;;;;;22.80;15.57;;;11.80;99.90;;;;;;5092657;28;20211;-71
2022/11/28 11:19:30;;;;;;;22.57;12.90;;;11.70;99.90;;;;;;5089541;28;20261;-73
2022/11/28 11:22:03;;;;;;;17.10;12.87;;;11.90;99.90;;;;;;5066563;28;20180;-70
2022/11/28 11:24:32;;;;;;;27.90;21.27;;;11.70;99.90;;;;;;5091098;28;20655;-69
2022/11/28 11:27:28;;;;;;;28.30;20.03;;;11.60;99.90;;;;;;5093438;28;20703;-69
2022/11/28 11:29:54;;;;;;;51.10;40.27;;;11.80;99.90;;;;;;5088168;28;20176;-70
2022/11/28 11:32:29;;;;;;;22.47;13.73;;;11.80;99.90;;;;;;5082999;28;20237;-72
2022/11/28 11:34:57;;;;;;;39.77;29.43;;;11.80;99.90;;;;;;5093806;28;20184;-70
2022/11/28 11:37:38;;;;;;;19.30;13.10;;;11.90;99.90;;;;;;5093349;28;20247;-70
2022/11/28 11:40:27;;;;;;;21.50;15.07;;;12.00;99.90;;;;;;5083439;28;20249;-72
2022/11/28 11:42:58;;;;;;;22.80;14.80;;;11.80;99.90;;;;;;5059930;28;20640;-71
2022/11/28 11:45:32;;;;;;;35.50;21.37;;;11.70;99.90;;;;;;5098511;28;20181;-72
2022/11/28 11:47:57;;;;;;;19.30;13.40;;;11.70;99.90;;;;;;5097982;28;20199;-71
2022/11/28 11:50:26;;;;;;;18.27;12.73;;;11.70;99.90;;;;;;5109620;28;20194;-71
2022/11/28 11:53:06;;;;;;;45.20;36.60;;;11.80;99.90;;;;;;5111983;28;20183;-71
2022/11/28 11:55:45;;;;;;;23.83;13.50;;;11.90;99.90;;;;;;5093985;28;20187;-72
2022/11/28 11:58:15;;;;;;;24.53;14.00;;;12.00;99.90;;;;;;5093348;28;20176;-69
2022/11/28 12:00:41;;;;;;;28.90;19.37;;;12.10;99.90;;;;;;5091971;28;20180;-72
2022/11/28 12:03:22;;;;;;;144.03;127.43;;;12.00;99.90;;;;;;5102250;28;20187;-73
2022/11/28 12:05:57;;;;;;;21.37;13.23;;;11.80;99.90;;;;;;5071649;28;20168;-70
2022/11/28 12:08:36;;;;;;;28.00;15.23;;;11.70;99.90;;;;;;5097727;28;20182;-72
2022/11/28 12:11:14;;;;;;;41.80;31.17;;;11.70;99.90;;;;;;5094896;28;20643;-71
2022/11/28 12:13:40;;;;;;;22.83;13.63;;;11.80;99.90;;;;;;5072426;28;20184;-71
2022/11/28 12:16:35;;;;;;;22.30;12.40;;;11.70;99.90;;;;;;5073828;28;20714;-70
2022/11/28 12:19:05;;;;;;;70.03;51.90;;;11.70;99.90;;;;;;5100005;28;20183;-69
2022/11/28 12:21:44;;;;;;;36.17;22.50;;;11.60;99.90;;;;;;5081715;28;20267;-71
2022/11/28 12:24:15;;;;;;;21.77;13.13;;;11.50;99.90;;;;;;5081664;28;20187;-71
2022/11/28 12:26:46;;;;;;;31.43;16.67;;;11.60;99.90;;;;;;5098746;28;20647;-71
2022/11/28 12:29:37;;;;;;;26.93;13.20;;;11.70;99.90;;;;;;5087719;28;20183;-72
2022/11/28 12:32:09;;;;;;;20.03;14.27;;;11.70;99.90;;;;;;5097369;28;20259;-72
2022/11/28 12:35:12;;;;;;;22.43;12.80;;;11.60;99.90;;;;;;5085318;28;20241;-70
2022/11/28 12:37:44;;;;;;;25.80;15.17;;;11.80;99.90;;;;;;5084464;28;20208;-71
2022/11/28 12:40:13;;;;;;;22.10;12.93;;;11.90;99.90;;;;;;5074406;28;20631;-71
2022/11/28 12:43:01;;;;;;;20.73;13.60;;;12.00;99.90;;;;;;5084455;28;20176;-71
2022/11/28 12:45:53;;;;;;;19.90;12.40;;;11.90;99.90;;;;;;5092453;28;20651;-72
2022/11/28 12:49:01;;;;;;;21.27;12.83;;;11.80;99.90;;;;;;5092264;28;20184;-71
2022/11/28 12:51:51;;;;;;;19.27;12.17;;;11.80;99.90;;;;;;5086968;28;20187;-73
2022/11/28 12:54:51;;;;;;;22.67;12.70;;;11.70;99.90;;;;;;5079528;28;20240;-71
2022/11/28 12:57:36;;;;;;;20.60;12.63;;;11.70;99.90;;;;;;5091894;28;20215;-71
2022/11/28 13:00:06;;;;;;;28.90;19.07;;;11.60;99.90;;;;;;5075950;28;20172;-72
2022/11/28 13:02:44;;;;;;;21.07;13.03;;;11.60;99.90;;;;;;5071388;28;20191;-72
2022/11/28 13:05:37;;;;;;;23.47;12.53;;;11.60;99.90;;;;;;5080314;28;20175;-72
2022/11/28 13:08:16;;;;;;;20.27;12.77;;;11.70;99.90;;;;;;5090956;28;20156;-72
2022/11/28 13:10:54;;;;;;;21.20;12.77;;;11.80;99.90;;;;;;5081770;28;20169;-72
2022/11/28 13:13:31;;;;;;;17.73;12.23;;;11.70;99.90;;;;;;5090029;28;20259;-71